createdAt,value
2023-03-03T00:00:39.157Z,1017.47
2023-03-03T00:01:39.187Z,1017.56
2023-03-03T00:02:39.206Z,1017.56
2023-03-03T00:03:39.225Z,1017.59
2023-03-03T00:04:39.120Z,1017.64
2023-03-03T00:05:39.116Z,1017.60
2023-03-03T00:06:39.119Z,1017.60
2023-03-03T00:07:39.105Z,1017.62
2023-03-03T00:08:39.089Z,1017.61
2023-03-03T00:09:39.068Z,1017.66
2023-03-03T00:10:39.090Z,1017.67
2023-03-03T00:11:39.048Z,1017.68
2023-03-03T00:12:39.038Z,1017.65
2023-03-03T00:13:39.015Z,1017.66
2023-03-03T00:14:39.031Z,1017.70
2023-03-03T00:15:39.067Z,1017.66
2023-03-03T00:16:38.995Z,1017.70
2023-03-03T00:17:38.979Z,1017.67
2023-03-03T00:18:39.004Z,1017.64
2023-03-03T00:19:38.964Z,1017.65
2023-03-03T00:20:38.942Z,1017.64
2023-03-03T00:21:38.974Z,1017.63
2023-03-03T00:22:38.917Z,1017.64
2023-03-03T00:23:38.999Z,1017.66
2023-03-03T00:24:38.914Z,1017.64
2023-03-03T00:25:38.888Z,1017.64
2023-03-03T00:26:38.885Z,1017.66
2023-03-03T00:27:38.875Z,1017.61
2023-03-03T00:28:38.862Z,1017.61
2023-03-03T00:29:38.864Z,1017.49
2023-03-03T00:30:39.804Z,1017.53
2023-03-03T00:31:38.858Z,1017.46
2023-03-03T00:32:38.817Z,1017.44
2023-03-03T00:34:29.763Z,1017.40
2023-03-03T00:35:29.795Z,1017.46
2023-03-03T00:36:29.752Z,1017.44
2023-03-03T00:37:29.756Z,1017.42
2023-03-03T00:38:29.723Z,1017.43
2023-03-03T00:39:29.734Z,1017.43
2023-03-03T00:40:29.698Z,1017.43
2023-03-03T00:41:29.695Z,1017.49
2023-03-03T00:42:29.715Z,1017.54
2023-03-03T00:43:29.672Z,1017.53
2023-03-03T00:44:29.655Z,1017.53
2023-03-03T00:45:29.647Z,1017.48
2023-03-03T00:46:29.655Z,1017.42
2023-03-03T00:47:31.649Z,1017.36
2023-03-03T00:48:29.642Z,1017.39
2023-03-03T00:49:29.609Z,1017.36
2023-03-03T00:50:29.606Z,1017.39
2023-03-03T00:51:29.604Z,1017.39
2023-03-03T00:52:29.590Z,1017.39
2023-03-03T00:53:29.704Z,1017.40
2023-03-03T00:54:29.562Z,1017.41
2023-03-03T00:55:29.561Z,1017.36
2023-03-03T00:56:29.574Z,1017.39
2023-03-03T00:57:29.560Z,1017.41
2023-03-03T00:58:29.532Z,1017.42
2023-03-03T00:59:29.501Z,1017.42
2023-03-03T01:00:29.508Z,1017.36
2023-03-03T01:01:29.551Z,1017.33
2023-03-03T01:02:29.539Z,1017.32
2023-03-03T01:03:29.462Z,1017.30
2023-03-03T01:04:29.457Z,1017.33
2023-03-03T01:05:29.434Z,1017.31
2023-03-03T01:06:29.460Z,1017.33
2023-03-03T01:07:29.421Z,1017.34
2023-03-03T01:08:29.412Z,1017.28
2023-03-03T01:09:29.394Z,1017.26
2023-03-03T01:10:29.387Z,1017.22
2023-03-03T01:11:29.424Z,1017.22
2023-03-03T01:12:29.383Z,1017.21
2023-03-03T01:13:29.364Z,1017.28
2023-03-03T01:14:29.363Z,1017.28
2023-03-03T01:15:29.350Z,1017.30
2023-03-03T01:16:29.419Z,1017.28
2023-03-03T01:17:29.331Z,1017.27
2023-03-03T01:18:29.320Z,1017.27
2023-03-03T01:19:29.300Z,1017.27
2023-03-03T01:20:29.280Z,1017.23
2023-03-03T01:21:29.520Z,1017.23
2023-03-03T01:22:29.272Z,1017.24
2023-03-03T01:23:29.262Z,1017.23
2023-03-03T01:24:29.237Z,1017.19
2023-03-03T01:25:29.243Z,1017.16
2023-03-03T01:26:29.227Z,1017.20
2023-03-03T01:27:29.257Z,1017.21
2023-03-03T01:28:29.221Z,1017.21
2023-03-03T01:29:29.197Z,1017.22
2023-03-03T01:30:29.322Z,1017.16
2023-03-03T01:31:29.199Z,1017.13
2023-03-03T01:32:29.265Z,1017.08
2023-03-03T01:33:29.168Z,1017.11
2023-03-03T01:34:29.158Z,1017.14
2023-03-03T01:35:29.211Z,1017.12
2023-03-03T01:36:29.120Z,1017.08
2023-03-03T01:37:29.139Z,1017.07
2023-03-03T01:38:29.118Z,1017.00
2023-03-03T01:39:29.104Z,1016.99
2023-03-03T01:40:29.078Z,1016.98
2023-03-03T01:41:29.091Z,1016.95
2023-03-03T01:42:29.070Z,1016.96
2023-03-03T01:43:29.077Z,1016.94
2023-03-03T01:44:29.032Z,1016.97
2023-03-03T01:45:29.022Z,1016.91
2023-03-03T01:46:29.052Z,1016.93
2023-03-03T01:47:29.024Z,1016.90
2023-03-03T01:48:29.003Z,1016.88
2023-03-03T01:49:28.984Z,1016.91
2023-03-03T01:50:28.981Z,1016.90
2023-03-03T01:51:28.989Z,1016.89
2023-03-03T01:52:28.957Z,1016.87
2023-03-03T01:53:28.937Z,1016.92
2023-03-03T01:54:28.937Z,1016.83
2023-03-03T01:55:28.939Z,1016.85
2023-03-03T01:56:28.939Z,1016.76
2023-03-03T01:57:28.929Z,1016.83
2023-03-03T01:58:28.888Z,1016.84
2023-03-03T01:59:28.932Z,1016.87
2023-03-03T02:00:29.068Z,1016.87
2023-03-03T02:01:28.932Z,1016.84
2023-03-03T02:02:28.862Z,1016.87
2023-03-03T02:03:28.849Z,1016.82
2023-03-03T02:04:28.829Z,1016.76
2023-03-03T02:05:28.834Z,1016.82
2023-03-03T02:06:28.824Z,1016.82
2023-03-03T02:07:28.797Z,1016.86
2023-03-03T02:08:28.790Z,1016.85
2023-03-03T02:09:28.798Z,1016.89
2023-03-03T02:10:28.759Z,1016.84
2023-03-03T02:11:28.792Z,1016.85
2023-03-03T02:12:28.751Z,1016.87
2023-03-03T02:13:28.742Z,1016.89
2023-03-03T02:14:28.731Z,1016.99
2023-03-03T02:15:28.749Z,1017.05
2023-03-03T02:16:28.786Z,1017.04
2023-03-03T02:17:28.694Z,1017.03
2023-03-03T02:18:28.688Z,1017.01
2023-03-03T02:19:28.676Z,1017.00
2023-03-03T02:20:28.688Z,1017.03
2023-03-03T02:21:28.674Z,1016.99
2023-03-03T02:22:28.645Z,1017.03
2023-03-03T02:23:28.640Z,1017.02
2023-03-03T02:24:28.632Z,1017.00
2023-03-03T02:25:28.635Z,1017.01
2023-03-03T02:26:28.602Z,1017.04
2023-03-03T02:27:28.591Z,1017.06
2023-03-03T02:28:28.585Z,1017.05
2023-03-03T02:29:28.586Z,1017.06
2023-03-03T02:30:28.583Z,1017.06
2023-03-03T02:31:28.583Z,1017.07
2023-03-03T02:32:28.636Z,1017.06
2023-03-03T02:33:28.551Z,1017.14
2023-03-03T02:34:28.538Z,1017.13
2023-03-03T02:35:28.532Z,1017.11
2023-03-03T02:36:28.554Z,1017.13
2023-03-03T02:37:28.501Z,1017.11
2023-03-03T02:38:28.481Z,1017.06
2023-03-03T02:39:28.464Z,1017.04
2023-03-03T02:40:28.446Z,1017.04
2023-03-03T02:41:28.443Z,1017.03
2023-03-03T02:42:28.450Z,1017.06
2023-03-03T02:43:28.429Z,1017.07
2023-03-03T02:44:28.421Z,1017.01
2023-03-03T02:45:28.437Z,1017.01
2023-03-03T02:46:28.395Z,1017.04
2023-03-03T02:47:28.410Z,1017.01
2023-03-03T02:48:28.371Z,1017.03
2023-03-03T02:49:28.359Z,1017.07
2023-03-03T02:50:28.341Z,1017.06
2023-03-03T02:51:28.335Z,1017.11
2023-03-03T02:52:28.324Z,1017.11
2023-03-03T02:53:28.343Z,1017.07
2023-03-03T02:54:28.308Z,1017.09
2023-03-03T02:55:28.294Z,1017.05
2023-03-03T02:56:28.281Z,1017.03
2023-03-03T02:57:28.304Z,1017.01
2023-03-03T02:58:28.263Z,1016.92
2023-03-03T02:59:28.274Z,1017.01
2023-03-03T03:00:28.236Z,1017.01
2023-03-03T03:01:28.321Z,1017.02
2023-03-03T03:02:28.210Z,1017.00
2023-03-03T03:03:28.229Z,1017.08
2023-03-03T03:04:28.329Z,1017.06
2023-03-03T03:05:28.188Z,1017.12
2023-03-03T03:06:28.189Z,1017.13
2023-03-03T03:07:28.170Z,1017.13
2023-03-03T03:08:28.154Z,1017.14
2023-03-03T03:09:28.146Z,1017.10
2023-03-03T03:10:28.147Z,1017.11
2023-03-03T03:11:28.125Z,1017.13
2023-03-03T03:12:28.110Z,1017.12
2023-03-03T03:13:28.117Z,1017.12
2023-03-03T03:14:28.125Z,1017.12
2023-03-03T03:15:28.087Z,1017.11
2023-03-03T03:16:28.147Z,1017.11
2023-03-03T03:17:28.063Z,1017.15
2023-03-03T03:18:28.052Z,1017.20
2023-03-03T03:19:28.056Z,1017.22
2023-03-03T03:20:28.076Z,1017.22
2023-03-03T03:21:28.018Z,1017.25
2023-03-03T03:22:28.008Z,1017.28
2023-03-03T03:23:28.003Z,1017.26
2023-03-03T03:24:27.988Z,1017.33
2023-03-03T03:25:27.975Z,1017.37
2023-03-03T03:26:28.004Z,1017.38
2023-03-03T03:27:27.952Z,1017.36
2023-03-03T03:28:27.972Z,1017.37
2023-03-03T03:29:27.931Z,1017.38
2023-03-03T03:30:27.955Z,1017.39
2023-03-03T03:31:27.929Z,1017.34
2023-03-03T03:32:27.967Z,1017.34
2023-03-03T03:33:27.898Z,1017.27
2023-03-03T03:34:27.872Z,1017.32
2023-03-03T03:35:27.941Z,1017.33
2023-03-03T03:36:27.879Z,1017.40
2023-03-03T03:37:27.849Z,1017.39
2023-03-03T03:38:27.840Z,1017.39
2023-03-03T03:39:27.824Z,1017.42
2023-03-03T03:40:27.825Z,1017.48
2023-03-03T03:41:27.832Z,1017.48
2023-03-03T03:42:27.821Z,1017.45
2023-03-03T03:43:27.786Z,1017.44
2023-03-03T03:44:27.789Z,1017.46
2023-03-03T03:45:27.761Z,1017.40
2023-03-03T03:46:27.754Z,1017.35
2023-03-03T03:47:27.740Z,1017.29
2023-03-03T03:48:27.773Z,1017.30
2023-03-03T03:49:27.721Z,1017.30
2023-03-03T03:50:27.703Z,1017.28
2023-03-03T03:51:27.713Z,1017.27
2023-03-03T03:52:27.704Z,1017.25
2023-03-03T03:53:27.688Z,1017.28
2023-03-03T03:54:27.704Z,1017.25
2023-03-03T03:55:27.654Z,1017.22
2023-03-03T03:56:27.650Z,1017.26
2023-03-03T03:57:27.638Z,1017.26
2023-03-03T03:58:27.629Z,1017.23
2023-03-03T03:59:27.634Z,1017.20
2023-03-03T04:00:27.604Z,1017.18
2023-03-03T04:01:27.612Z,1017.13
2023-03-03T04:02:27.702Z,1017.08
2023-03-03T04:03:27.775Z,1017.11
2023-03-03T04:04:27.617Z,1017.09
2023-03-03T04:05:27.555Z,1017.06
2023-03-03T04:06:27.567Z,1017.10
2023-03-03T04:07:27.594Z,1017.03
2023-03-03T04:08:27.544Z,1017.07
2023-03-03T04:09:27.516Z,1017.00
2023-03-03T04:10:27.503Z,1017.02
2023-03-03T04:11:27.490Z,1016.99
2023-03-03T04:12:27.485Z,1017.03
2023-03-03T04:13:27.480Z,1017.02
2023-03-03T04:14:27.465Z,1016.98
2023-03-03T04:15:27.476Z,1016.96
2023-03-03T04:16:27.446Z,1017.00
2023-03-03T04:17:27.476Z,1016.98
2023-03-03T04:18:27.424Z,1016.98
2023-03-03T04:19:27.416Z,1016.92
2023-03-03T04:20:27.404Z,1016.93
2023-03-03T04:21:27.386Z,1016.98
2023-03-03T04:22:27.403Z,1016.96
2023-03-03T04:23:27.550Z,1017.01
2023-03-03T04:24:27.357Z,1017.01
2023-03-03T04:25:27.342Z,1016.98
2023-03-03T04:26:27.348Z,1017.00
2023-03-03T04:27:27.334Z,1016.99
2023-03-03T04:28:27.315Z,1017.01
2023-03-03T04:29:27.315Z,1017.04
2023-03-03T04:30:27.315Z,1017.00
2023-03-03T04:31:27.340Z,1016.99
2023-03-03T04:32:27.317Z,1016.96
2023-03-03T04:33:27.276Z,1016.95
2023-03-03T04:34:27.246Z,1017.00
2023-03-03T04:35:27.307Z,1016.93
2023-03-03T04:36:27.236Z,1016.96
2023-03-03T04:37:27.233Z,1016.98
2023-03-03T04:38:27.213Z,1016.94
2023-03-03T04:39:27.237Z,1016.95
2023-03-03T04:40:27.183Z,1016.95
2023-03-03T04:41:27.171Z,1016.93
2023-03-03T04:42:27.170Z,1016.91
2023-03-03T04:43:27.172Z,1016.88
2023-03-03T04:44:27.159Z,1016.85
2023-03-03T04:45:27.154Z,1016.89
2023-03-03T04:46:27.201Z,1016.93
2023-03-03T04:47:27.115Z,1016.95
2023-03-03T04:48:27.113Z,1016.95
2023-03-03T04:49:27.101Z,1016.98
2023-03-03T04:50:27.083Z,1017.03
2023-03-03T04:51:27.069Z,1017.00
2023-03-03T04:52:27.065Z,1016.99
2023-03-03T04:53:27.065Z,1016.93
2023-03-03T04:54:27.051Z,1016.95
2023-03-03T04:55:27.046Z,1016.97
2023-03-03T04:56:27.020Z,1016.97
2023-03-03T04:57:27.020Z,1016.96
2023-03-03T04:58:27.028Z,1016.96
2023-03-03T04:59:26.987Z,1017.02
2023-03-03T05:00:26.979Z,1017.00
2023-03-03T05:01:27.041Z,1016.97
2023-03-03T05:02:26.970Z,1016.99
2023-03-03T05:03:26.968Z,1016.98
2023-03-03T05:04:27.002Z,1016.99
2023-03-03T05:05:26.932Z,1016.99
2023-03-03T05:06:26.918Z,1016.96
2023-03-03T05:07:26.891Z,1016.93
2023-03-03T05:08:26.889Z,1016.88
2023-03-03T05:09:26.897Z,1016.89
2023-03-03T05:10:26.895Z,1016.90
2023-03-03T05:11:26.863Z,1016.86
2023-03-03T05:12:26.845Z,1016.83
2023-03-03T05:13:26.838Z,1016.80
2023-03-03T05:14:26.833Z,1016.84
2023-03-03T05:15:26.806Z,1016.83
2023-03-03T05:16:26.865Z,1016.88
2023-03-03T05:17:26.803Z,1016.91
2023-03-03T05:18:26.778Z,1016.93
2023-03-03T05:19:26.767Z,1016.90
2023-03-03T05:20:26.761Z,1016.88
2023-03-03T05:21:26.778Z,1016.85
2023-03-03T05:22:26.739Z,1016.84
2023-03-03T05:23:26.731Z,1016.83
2023-03-03T05:24:26.712Z,1016.84
2023-03-03T05:25:26.716Z,1016.80
2023-03-03T05:26:26.709Z,1016.78
2023-03-03T05:27:26.702Z,1016.76
2023-03-03T05:28:26.663Z,1016.83
2023-03-03T05:29:26.659Z,1016.78
2023-03-03T05:30:26.686Z,1016.85
2023-03-03T05:31:26.689Z,1016.80
2023-03-03T05:32:26.701Z,1016.81
2023-03-03T05:33:26.623Z,1016.85
2023-03-03T05:34:26.623Z,1016.86
2023-03-03T05:35:26.642Z,1016.83
2023-03-03T05:36:26.582Z,1016.87
2023-03-03T05:37:26.615Z,1016.88
2023-03-03T05:38:26.577Z,1016.87
2023-03-03T05:39:26.551Z,1016.89
2023-03-03T05:40:26.543Z,1016.94
2023-03-03T05:41:26.531Z,1016.98
2023-03-03T05:42:26.553Z,1017.01
2023-03-03T05:43:26.554Z,1017.01
2023-03-03T05:44:26.507Z,1017.07
2023-03-03T05:45:26.523Z,1017.08
2023-03-03T05:46:26.503Z,1017.05
2023-03-03T05:47:26.502Z,1017.07
2023-03-03T05:48:26.468Z,1017.11
2023-03-03T05:49:26.445Z,1017.13
2023-03-03T05:50:26.448Z,1017.13
2023-03-03T05:51:26.431Z,1017.07
2023-03-03T05:52:26.467Z,1017.15
2023-03-03T05:53:26.405Z,1017.15
2023-03-03T05:54:26.401Z,1017.17
2023-03-03T05:55:26.404Z,1017.14
2023-03-03T05:56:26.382Z,1017.16
2023-03-03T05:57:26.369Z,1017.12
2023-03-03T05:58:26.368Z,1017.15
2023-03-03T05:59:26.366Z,1017.15
2023-03-03T06:00:26.344Z,1017.15
2023-03-03T06:01:26.422Z,1017.11
2023-03-03T06:02:26.330Z,1017.14
2023-03-03T06:03:26.307Z,1017.18
2023-03-03T06:04:26.331Z,1017.14
2023-03-03T06:05:26.283Z,1017.18
2023-03-03T06:06:26.264Z,1017.18
2023-03-03T06:07:26.295Z,1017.18
2023-03-03T06:08:26.264Z,1017.18
2023-03-03T06:09:26.240Z,1017.17
2023-03-03T06:10:26.254Z,1017.18
2023-03-03T06:11:26.228Z,1017.10
2023-03-03T06:12:26.216Z,1017.14
2023-03-03T06:13:26.235Z,1017.11
2023-03-03T06:14:27.237Z,1017.09
2023-03-03T06:15:26.255Z,1017.10
2023-03-03T06:16:26.211Z,1017.12
2023-03-03T06:17:26.156Z,1017.16
2023-03-03T06:18:26.142Z,1017.14
2023-03-03T06:19:26.176Z,1017.17
2023-03-03T06:20:26.122Z,1017.17
2023-03-03T06:21:26.118Z,1017.12
2023-03-03T06:22:26.115Z,1017.15
2023-03-03T06:23:26.087Z,1017.19
2023-03-03T06:24:26.080Z,1017.16
2023-03-03T06:25:26.085Z,1017.16
2023-03-03T06:26:26.066Z,1017.24
2023-03-03T06:27:26.074Z,1017.21
2023-03-03T06:28:26.038Z,1017.29
2023-03-03T06:29:26.023Z,1017.25
2023-03-03T06:30:26.011Z,1017.28
2023-03-03T06:31:26.197Z,1017.29
2023-03-03T06:32:26.026Z,1017.34
2023-03-03T06:33:25.980Z,1017.31
2023-03-03T06:34:25.979Z,1017.35
2023-03-03T06:35:25.976Z,1017.35
2023-03-03T06:36:25.958Z,1017.36
2023-03-03T06:37:25.957Z,1017.34
2023-03-03T06:38:25.948Z,1017.33
2023-03-03T06:39:25.924Z,1017.33
2023-03-03T06:40:25.899Z,1017.33
2023-03-03T06:41:25.927Z,1017.28
2023-03-03T06:42:25.880Z,1017.31
2023-03-03T06:43:25.870Z,1017.32
2023-03-03T06:44:28.373Z,1017.31
2023-03-03T06:45:25.861Z,1017.31
2023-03-03T06:46:25.872Z,1017.33
2023-03-03T06:47:25.841Z,1017.29
2023-03-03T06:48:25.829Z,1017.32
2023-03-03T06:49:25.814Z,1017.33
2023-03-03T06:50:25.808Z,1017.34
2023-03-03T06:51:25.814Z,1017.32
2023-03-03T06:52:25.848Z,1017.36
2023-03-03T06:53:25.819Z,1017.34
2023-03-03T06:54:27.757Z,1017.37
2023-03-03T06:55:25.761Z,1017.36
2023-03-03T06:56:25.747Z,1017.38
2023-03-03T06:57:25.755Z,1017.38
2023-03-03T06:58:25.711Z,1017.45
2023-03-03T06:59:25.856Z,1017.49
2023-03-03T07:00:25.706Z,1017.51
2023-03-03T07:01:25.772Z,1017.54
2023-03-03T07:02:25.684Z,1017.59
2023-03-03T07:03:25.711Z,1017.55
2023-03-03T07:04:25.796Z,1017.66
2023-03-03T07:05:25.648Z,1017.66
2023-03-03T07:06:25.639Z,1017.73
2023-03-03T07:07:25.645Z,1017.68
2023-03-03T07:08:25.646Z,1017.70
2023-03-03T07:09:25.633Z,1017.73
2023-03-03T07:10:25.612Z,1017.69
2023-03-03T07:11:25.602Z,1017.68
2023-03-03T07:12:25.613Z,1017.67
2023-03-03T07:13:25.588Z,1017.68
2023-03-03T07:14:25.566Z,1017.66
2023-03-03T07:15:25.554Z,1017.66
2023-03-03T07:16:25.681Z,1017.62
2023-03-03T07:17:25.579Z,1017.64
2023-03-03T07:18:25.543Z,1017.67
2023-03-03T07:19:25.540Z,1017.63
2023-03-03T07:20:25.519Z,1017.67
2023-03-03T07:21:25.520Z,1017.68
2023-03-03T07:22:25.482Z,1017.67
2023-03-03T07:23:25.488Z,1017.73
2023-03-03T07:24:25.463Z,1017.78
2023-03-03T07:25:25.448Z,1017.80
2023-03-03T07:26:25.440Z,1017.78
2023-03-03T07:27:25.432Z,1017.76
2023-03-03T07:28:25.409Z,1017.76
2023-03-03T07:29:25.446Z,1017.84
2023-03-03T07:30:25.389Z,1017.77
2023-03-03T07:31:25.383Z,1017.77
2023-03-03T07:32:25.401Z,1017.76
2023-03-03T07:33:25.365Z,1017.78
2023-03-03T07:34:25.367Z,1017.84
2023-03-03T07:35:25.368Z,1017.83
2023-03-03T07:36:25.324Z,1017.88
2023-03-03T07:37:25.317Z,1017.86
2023-03-03T07:38:25.353Z,1017.83
2023-03-03T07:39:25.764Z,1017.83
2023-03-03T07:40:25.295Z,1017.86
2023-03-03T07:41:25.293Z,1017.86
2023-03-03T07:42:25.285Z,1017.89
2023-03-03T07:43:26.004Z,1017.85
2023-03-03T07:44:25.343Z,1017.87
2023-03-03T07:45:25.247Z,1017.86
2023-03-03T07:46:25.319Z,1017.87
2023-03-03T07:47:25.825Z,1017.85
2023-03-03T07:48:25.213Z,1017.90
2023-03-03T07:49:25.205Z,1017.93
2023-03-03T07:50:25.183Z,1017.93
2023-03-03T07:51:25.210Z,1017.94
2023-03-03T07:52:25.204Z,1017.97
2023-03-03T07:53:25.158Z,1018.02
2023-03-03T07:54:25.161Z,1018.02
2023-03-03T07:55:25.155Z,1018.04
2023-03-03T07:56:25.245Z,1018.01
2023-03-03T07:57:25.125Z,1018.07
2023-03-03T07:58:25.405Z,1018.02
2023-03-03T07:59:25.097Z,1018.08
2023-03-03T08:00:25.134Z,1018.02
2023-03-03T08:01:25.100Z,1018.01
2023-03-03T08:02:25.069Z,1018.02
2023-03-03T08:03:25.076Z,1018.01
2023-03-03T08:04:25.318Z,1017.99
2023-03-03T08:05:25.184Z,1017.93
2023-03-03T08:06:25.027Z,1017.94
2023-03-03T08:07:25.055Z,1017.96
2023-03-03T08:08:25.031Z,1017.96
2023-03-03T08:09:25.003Z,1017.96
2023-03-03T08:10:25.030Z,1018.02
2023-03-03T08:11:24.988Z,1018.03
2023-03-03T08:12:24.965Z,1017.98
2023-03-03T08:13:24.962Z,1017.99
2023-03-03T08:14:24.929Z,1018.00
2023-03-03T08:15:24.946Z,1018.05
2023-03-03T08:16:25.038Z,1018.01
2023-03-03T08:17:25.131Z,1017.98
2023-03-03T08:18:25.026Z,1017.96
2023-03-03T08:19:25.015Z,1017.92
2023-03-03T08:20:25.026Z,1017.91
2023-03-03T08:21:24.877Z,1017.89
2023-03-03T08:22:24.838Z,1017.87
2023-03-03T08:23:24.873Z,1017.94
2023-03-03T08:24:24.830Z,1017.94
2023-03-03T08:25:24.810Z,1018.00
2023-03-03T08:26:24.836Z,1018.01
2023-03-03T08:27:24.812Z,1018.00
2023-03-03T08:28:24.780Z,1017.93
2023-03-03T08:29:24.767Z,1017.90
2023-03-03T08:30:24.752Z,1017.88
2023-03-03T08:31:39.932Z,1017.89
2023-03-03T08:32:25.854Z,1017.92
2023-03-03T08:33:24.725Z,1017.98
2023-03-03T08:34:24.715Z,1018.00
2023-03-03T08:35:24.774Z,1017.97
2023-03-03T08:36:24.698Z,1017.91
2023-03-03T08:37:24.680Z,1017.89
2023-03-03T08:38:24.683Z,1017.90
2023-03-03T08:39:24.669Z,1017.90
2023-03-03T08:40:24.660Z,1017.90
2023-03-03T08:41:24.629Z,1017.94
2023-03-03T08:42:24.624Z,1017.95
2023-03-03T08:43:24.634Z,1017.94
2023-03-03T08:44:24.612Z,1017.96
2023-03-03T08:45:24.606Z,1017.97
2023-03-03T08:46:24.617Z,1017.94
2023-03-03T08:47:24.566Z,1017.95
2023-03-03T08:48:24.562Z,1017.95
2023-03-03T08:49:24.630Z,1018.02
2023-03-03T08:50:24.539Z,1018.04
2023-03-03T08:51:24.535Z,1018.06
2023-03-03T08:52:24.528Z,1018.03
2023-03-03T08:53:24.509Z,1018.06
2023-03-03T08:54:24.531Z,1018.07
2023-03-03T08:55:24.505Z,1018.00
2023-03-03T08:56:24.474Z,1018.03
2023-03-03T08:57:24.494Z,1018.05
2023-03-03T08:58:34.688Z,1018.04
2023-03-03T08:59:25.464Z,1018.06
2023-03-03T09:00:24.550Z,1018.05
2023-03-03T09:01:24.513Z,1018.05
2023-03-03T09:02:24.422Z,1018.08
2023-03-03T09:03:24.401Z,1018.08
2023-03-03T09:04:24.461Z,1018.05
2023-03-03T09:05:24.403Z,1018.04
2023-03-03T09:06:24.415Z,1018.00
2023-03-03T09:07:24.369Z,1018.02
2023-03-03T09:08:24.350Z,1018.00
2023-03-03T09:09:24.350Z,1017.99
2023-03-03T09:10:24.384Z,1017.96
2023-03-03T09:11:24.348Z,1017.92
2023-03-03T09:12:24.312Z,1017.91
2023-03-03T09:13:24.366Z,1017.87
2023-03-03T09:14:24.293Z,1017.90
2023-03-03T09:15:24.286Z,1017.96
2023-03-03T09:16:24.320Z,1017.95
2023-03-03T09:17:24.260Z,1017.92
2023-03-03T09:18:24.245Z,1017.87
2023-03-03T09:19:24.273Z,1017.92
2023-03-03T09:20:24.294Z,1017.89
2023-03-03T09:21:24.240Z,1017.89
2023-03-03T09:22:24.216Z,1017.87
2023-03-03T09:23:24.217Z,1017.85
2023-03-03T09:24:24.215Z,1017.84
2023-03-03T09:25:24.177Z,1017.87
2023-03-03T09:26:24.193Z,1017.87
2023-03-03T09:27:24.200Z,1017.82
2023-03-03T09:28:24.194Z,1017.83
2023-03-03T09:29:24.130Z,1017.82
2023-03-03T09:30:24.171Z,1017.85
2023-03-03T09:31:24.199Z,1017.81
2023-03-03T09:32:24.155Z,1017.86
2023-03-03T09:33:24.113Z,1017.85
2023-03-03T09:34:24.105Z,1017.85
2023-03-03T09:35:24.097Z,1017.85
2023-03-03T09:36:24.064Z,1017.85
2023-03-03T09:37:24.051Z,1017.83
2023-03-03T09:38:24.054Z,1017.87
2023-03-03T09:39:24.022Z,1017.85
2023-03-03T09:40:24.022Z,1017.90
2023-03-03T09:41:24.007Z,1017.91
2023-03-03T09:42:23.987Z,1017.90
2023-03-03T09:43:23.995Z,1017.91
2023-03-03T09:44:23.992Z,1017.94
2023-03-03T09:45:23.961Z,1017.97
2023-03-03T09:46:23.966Z,1018.01
2023-03-03T09:47:23.942Z,1018.01
2023-03-03T09:48:23.943Z,1018.02
2023-03-03T09:49:26.383Z,1017.97
2023-03-03T09:50:23.919Z,1017.99
2023-03-03T09:51:23.920Z,1017.98
2023-03-03T09:52:23.890Z,1018.00
2023-03-03T09:53:23.869Z,1017.99
2023-03-03T09:54:23.889Z,1018.01
2023-03-03T09:55:25.427Z,1017.96
2023-03-03T09:56:23.854Z,1017.94
2023-03-03T09:57:23.835Z,1017.93
2023-03-03T09:58:23.815Z,1017.89
2023-03-03T09:59:23.821Z,1017.91
2023-03-03T10:00:23.820Z,1017.87
2023-03-03T10:01:23.793Z,1017.89
2023-03-03T10:02:23.773Z,1017.95
2023-03-03T10:03:23.891Z,1017.96
2023-03-03T10:04:23.798Z,1017.96
2023-03-03T10:05:23.785Z,1017.94
2023-03-03T10:06:23.727Z,1017.90
2023-03-03T10:07:23.739Z,1017.91
2023-03-03T10:08:23.712Z,1017.93
2023-03-03T10:09:23.710Z,1017.97
2023-03-03T10:10:23.703Z,1017.92
2023-03-03T10:11:23.681Z,1017.96
2023-03-03T10:12:23.699Z,1017.99
2023-03-03T10:13:23.685Z,1017.94
2023-03-03T10:14:23.656Z,1018.00
2023-03-03T10:15:23.657Z,1018.02
2023-03-03T10:16:23.780Z,1017.99
2023-03-03T10:17:23.614Z,1017.99
2023-03-03T10:18:23.619Z,1017.97
2023-03-03T10:19:23.603Z,1017.96
2023-03-03T10:20:23.589Z,1017.92
2023-03-03T10:21:23.568Z,1017.89
2023-03-03T10:22:23.585Z,1017.93
2023-03-03T10:23:23.561Z,1017.89
2023-03-03T10:24:23.550Z,1017.89
2023-03-03T10:25:23.534Z,1017.85
2023-03-03T10:26:31.673Z,1017.82
2023-03-03T10:27:24.535Z,1017.86
2023-03-03T10:28:23.510Z,1017.93
2023-03-03T10:29:23.490Z,1017.93
2023-03-03T10:30:38.322Z,1017.87
2023-03-03T10:31:28.332Z,1017.92
2023-03-03T10:32:23.753Z,1017.96
2023-03-03T10:33:23.649Z,1017.92
2023-03-03T10:34:23.427Z,1017.88
2023-03-03T10:35:23.511Z,1017.91
2023-03-03T10:36:23.437Z,1017.92
2023-03-03T10:37:23.396Z,1017.91
2023-03-03T10:38:23.398Z,1017.89
2023-03-03T10:39:23.389Z,1017.92
2023-03-03T10:40:23.392Z,1017.90
2023-03-03T10:41:23.357Z,1017.93
2023-03-03T10:42:23.348Z,1017.90
2023-03-03T10:43:31.886Z,1017.94
2023-03-03T10:44:24.327Z,1017.88
2023-03-03T10:45:23.325Z,1017.88
2023-03-03T10:46:23.324Z,1017.89
2023-03-03T10:47:23.310Z,1017.96
2023-03-03T10:48:23.281Z,1017.92
2023-03-03T10:49:23.277Z,1017.91
2023-03-03T10:50:23.269Z,1017.95
2023-03-03T10:51:23.289Z,1017.93
2023-03-03T10:52:23.248Z,1017.96
2023-03-03T10:53:23.228Z,1017.95
2023-03-03T10:54:23.219Z,1017.89
2023-03-03T10:55:23.227Z,1017.91
2023-03-03T10:56:23.241Z,1018.00
2023-03-03T10:57:23.282Z,1017.97
2023-03-03T10:58:23.203Z,1017.96
2023-03-03T10:59:23.166Z,1018.01
2023-03-03T11:00:23.150Z,1017.99
2023-03-03T11:01:24.676Z,1017.97
2023-03-03T11:02:23.163Z,1017.94
2023-03-03T11:03:23.174Z,1017.94
2023-03-03T11:04:23.208Z,1017.96
2023-03-03T11:05:23.106Z,1017.97
2023-03-03T11:06:23.094Z,1017.97
2023-03-03T11:07:23.081Z,1017.93
2023-03-03T11:08:23.079Z,1017.96
2023-03-03T11:09:23.073Z,1017.97
2023-03-03T11:10:23.043Z,1018.00
2023-03-03T11:11:23.041Z,1017.93
2023-03-03T11:12:23.341Z,1017.94
2023-03-03T11:13:23.019Z,1017.93
2023-03-03T11:14:23.052Z,1017.89
2023-03-03T11:15:22.990Z,1017.96
2023-03-03T11:16:23.052Z,1017.95
2023-03-03T11:17:22.975Z,1017.95
2023-03-03T11:18:25.793Z,1017.96
2023-03-03T11:19:22.965Z,1017.96
2023-03-03T11:20:22.964Z,1017.93
2023-03-03T11:21:22.933Z,1017.96
2023-03-03T11:22:22.933Z,1017.95
2023-03-03T11:23:22.925Z,1017.97
2023-03-03T11:24:25.064Z,1017.92
2023-03-03T11:25:22.914Z,1017.88
2023-03-03T11:26:22.877Z,1017.89
2023-03-03T11:27:22.866Z,1017.83
2023-03-03T11:28:22.954Z,1017.84
2023-03-03T11:29:22.913Z,1017.83
2023-03-03T11:30:22.841Z,1017.80
2023-03-03T11:31:22.849Z,1017.87
2023-03-03T11:32:22.984Z,1017.85
2023-03-03T11:33:22.856Z,1017.84
2023-03-03T11:34:22.786Z,1017.89
2023-03-03T11:35:22.900Z,1017.91
2023-03-03T11:36:22.801Z,1017.90
2023-03-03T11:37:22.769Z,1017.92
2023-03-03T11:38:22.762Z,1017.88
2023-03-03T11:39:22.747Z,1017.88
2023-03-03T11:40:22.766Z,1017.90
2023-03-03T11:41:22.725Z,1017.84
2023-03-03T11:42:23.825Z,1017.85
2023-03-03T11:43:35.599Z,1017.83
2023-03-03T11:44:23.691Z,1017.82
2023-03-03T11:45:22.686Z,1017.76
2023-03-03T11:46:22.742Z,1017.78
2023-03-03T11:47:22.667Z,1017.73
2023-03-03T11:48:22.652Z,1017.71
2023-03-03T11:49:22.652Z,1017.77
2023-03-03T11:50:22.628Z,1017.82
2023-03-03T11:51:22.641Z,1017.84
2023-03-03T11:52:22.631Z,1017.89
2023-03-03T11:53:22.603Z,1017.87
2023-03-03T11:54:22.589Z,1017.82
2023-03-03T11:55:23.773Z,1017.80
2023-03-03T11:56:22.565Z,1017.82
2023-03-03T11:57:22.574Z,1017.72
2023-03-03T11:58:22.541Z,1017.72
2023-03-03T11:59:22.582Z,1017.69
2023-03-03T12:00:22.534Z,1017.69
2023-03-03T12:01:22.512Z,1017.70
2023-03-03T12:02:22.593Z,1017.65
2023-03-03T12:03:22.619Z,1017.64
2023-03-03T12:04:22.495Z,1017.65
2023-03-03T12:05:22.528Z,1017.63
2023-03-03T12:06:22.497Z,1017.61